This is the latest recevied weather packets stored in our database for station/object XE2MEM-21. If no packets are shown the sender has not sent any weather packets the latest 10 day(s).
| Time | Temp. | Humidity | Pressure | Rain* | Wind** | Luminosity | Snow |
|---|---|---|---|---|---|---|---|
| 1777834647 | 30° C | 43% | 1017.1 hPa | - | - | - | - |
| 1777833747 | 32.22° C | 39% | 1017.5 hPa | - | - | - | - |
| 1777832847 | 29.44° C | 46% | 1017.8 hPa | - | - | - | - |
| 1777831947 | 30° C | 45% | 1018 hPa | - | - | - | - |
| 1777831047 | 26.67° C | 55% | 1018.2 hPa | - | - | - | - |
| 1777830147 | 26.67° C | 56% | 1018.5 hPa | - | - | - | - |
| 1777829247 | 28.89° C | 50% | 1018.6 hPa | - | - | - | - |
| 1777828347 | 26.11° C | 58% | 1018.9 hPa | - | - | - | - |
| 1777827447 | 26.67° C | 58% | 1018.9 hPa | - | - | - | - |
| 1777826547 | 28.89° C | 49% | 1019.2 hPa | - | - | - | - |
| 1777825647 | 27.22° C | 55% | 1019.4 hPa | - | - | - | - |
| 1777824746 | 27.78° C | 54% | 1019.3 hPa | - | - | - | - |
| 1777823846 | 26.67° C | 60% | 1019.3 hPa | - | - | - | - |
| 1777822946 | 26.11° C | 63% | 1019.3 hPa | - | - | - | - |
| 1777822046 | 25° C | 69% | 1019.5 hPa | - | - | - | - |
| 1777821146 | 25° C | 69% | 1019.3 hPa | - | - | - | - |
| 1777820246 | 26.11° C | 64% | 1019.1 hPa | - | - | - | - |
| 1777819346 | 26.67° C | 64% | 1019.1 hPa | - | - | - | - |
| 1777818446 | 25.56° C | 66% | 1018.9 hPa | - | - | - | - |
| 1777817546 | 25° C | 72% | 1018.8 hPa | - | - | - | - |
| 1777816646 | 22.78° C | 81% | 1019 hPa | - | - | - | - |
| 1777815746 | 23.89° C | 79% | 1018.8 hPa | - | - | - | - |
| 1777814846 | 22.22° C | 85% | 1018.8 hPa | - | - | - | - |
| 1777813946 | 22.22° C | 90% | 1018.5 hPa | - | - | - | - |
| 1777813045 | 21.11° C | 97% | 1018.3 hPa | - | - | - | - |
* Rain since midnight (hover to see other rain measurements)
** Current wind speed in m/s (hover to see current wind gust speed)